Terminal Aerodrome Forecast
Issued by NWS

Home | Current Version | Previous Version | Text Only | Print | Product List | Glossary Off
Versions: 1 2 3 4 5 6 7 8 9 10 11 12 13 14 15 16 17 18 19 20 21 22 23 24 25 26 27 28 29 30 31 32 33

000
FTUS43 KLOT 262103 AAB
TAFGYY
TAF AMD
KGYY 262103Z 2621/2718 24012KT P6SM BKN028 BKN040
     FM270000 23006KT P6SM BKN015
     FM270400 25005KT 5SM BR OVC009
     FM270900 31005KT 3SM BR SCT004 OVC007
     FM271500 04006KT P6SM OVC010=

USA.gov is the U.S. government's official web portal to all federal, state and local government web resources and services.